Terminal Aerodrome Forecast
Issued by NWS

Home | Current Version | Previous Version | Text Only | Print | Product List | Glossary On
Versions: 1 2 3 4 5 6 7 8 9 10 11 12 13 14 15 16 17 18 19 20 21 22 23 24 25 26
398
FTUS46 KSGX 200206 AAA
TAFSAN
TAF AMD
KSAN 200206Z 2002/2106 00000KT P6SM FEW025 SCT200 SCT250
     FM201300 20015G25KT 6SM -RA BR SCT010 OVC020
     FM201700 21020G30KT 3SM RA BR SCT007 OVC012
      TEMPO 2019/2023 1SM +RA OVC007
     FM210000 26015G25KT 6SM -SHRA BKN025=

USA.gov is the U.S. government's official web portal to all federal, state and local government web resources and services.